createdAt,value
2023-05-01T00:00:37.858Z,2.70
2023-05-01T00:03:04.705Z,2.60
2023-05-01T00:05:31.773Z,2.00
2023-05-01T00:07:58.641Z,2.10
2023-05-01T00:10:25.370Z,2.00
2023-05-01T00:12:52.011Z,2.40
2023-05-01T00:15:18.723Z,1.60
2023-05-01T00:17:45.511Z,2.30
2023-05-01T00:20:12.602Z,2.00
2023-05-01T00:22:39.452Z,1.40
2023-05-01T00:25:06.757Z,1.90
2023-05-01T00:27:33.421Z,1.60
2023-05-01T00:30:00.408Z,1.50
2023-05-01T00:32:27.094Z,1.60
2023-05-01T00:34:54.473Z,1.70
2023-05-01T00:37:21.386Z,1.50
2023-05-01T00:39:48.076Z,1.30
2023-05-01T00:42:14.779Z,1.20
2023-05-01T00:44:41.459Z,1.50
2023-05-01T00:47:08.127Z,1.10
2023-05-01T00:49:35.296Z,1.30
2023-05-01T00:52:02.002Z,1.40
2023-05-01T00:54:29.147Z,1.20
2023-05-01T00:56:56.088Z,1.40
2023-05-01T00:59:23.359Z,1.10
2023-05-01T01:01:52.775Z,1.30
2023-05-01T01:04:20.654Z,1.80
2023-05-01T01:07:12.153Z,1.60
2023-05-01T01:09:39.201Z,1.30
2023-05-01T01:12:31.206Z,1.20
2023-05-01T01:15:02.583Z,1.10
2023-05-01T01:17:37.849Z,0.90
2023-05-01T01:20:19.365Z,1.00
2023-05-01T01:22:50.788Z,1.20
2023-05-01T01:25:26.037Z,1.00
2023-05-01T01:28:11.637Z,1.00
2023-05-01T01:31:00.434Z,1.20
2023-05-01T01:33:59.207Z,1.20
2023-05-01T01:37:06.497Z,1.50
2023-05-01T01:39:41.571Z,1.40
2023-05-01T01:42:09.912Z,1.10
2023-05-01T01:44:41.979Z,1.10
2023-05-01T01:47:12.711Z,1.30
2023-05-01T01:49:42.588Z,1.40
2023-05-01T01:52:10.438Z,1.00
2023-05-01T01:54:39.072Z,1.30
2023-05-01T01:57:07.923Z,1.40
2023-05-01T01:59:35.349Z,1.20
2023-05-01T02:02:03.215Z,0.90
2023-05-01T02:04:30.240Z,1.10
2023-05-01T02:06:57.876Z,1.10
2023-05-01T02:09:25.007Z,0.90
2023-05-01T02:11:51.703Z,0.90
2023-05-01T02:14:18.658Z,0.90
2023-05-01T02:16:45.392Z,1.10
2023-05-01T02:19:13.506Z,1.00
2023-05-01T02:21:40.328Z,1.10
2023-05-01T02:24:07.204Z,1.00
2023-05-01T02:26:43.632Z,0.80
2023-05-01T02:29:10.878Z,1.00
2023-05-01T02:31:37.653Z,0.90
2023-05-01T02:34:04.579Z,0.80
2023-05-01T02:36:33.605Z,0.90
2023-05-01T02:39:00.822Z,0.80
2023-05-01T02:41:28.202Z,0.80
2023-05-01T02:44:01.707Z,0.80
2023-05-01T02:46:28.629Z,0.70
2023-05-01T02:48:55.547Z,0.90
2023-05-01T02:51:22.281Z,0.70
2023-05-01T02:53:48.976Z,1.00
2023-05-01T02:56:19.027Z,0.90
2023-05-01T02:58:45.717Z,0.60
2023-05-01T03:01:12.683Z,0.80
2023-05-01T03:03:39.776Z,0.70
2023-05-01T03:06:06.448Z,0.60
2023-05-01T03:08:33.221Z,0.70
2023-05-01T03:10:59.946Z,0.60
2023-05-01T03:13:26.870Z,0.70
2023-05-01T03:15:53.539Z,0.70
2023-05-01T03:18:20.480Z,0.60
2023-05-01T03:20:59.304Z,0.70
2023-05-01T03:23:26.191Z,0.60
2023-05-01T03:25:52.832Z,0.70
2023-05-01T03:28:20.842Z,0.70
2023-05-01T03:30:47.894Z,0.70
2023-05-01T03:33:15.255Z,0.60
2023-05-01T03:35:42.136Z,0.60
2023-05-01T03:38:09.248Z,0.50
2023-05-01T03:41:08.606Z,0.60
2023-05-01T03:43:58.416Z,0.70
2023-05-01T03:46:30.428Z,0.60
2023-05-01T03:48:57.329Z,0.60
2023-05-01T03:51:24.480Z,0.50
2023-05-01T03:53:52.378Z,0.50
2023-05-01T03:56:19.234Z,0.50
2023-05-01T03:58:47.076Z,0.60
2023-05-01T04:01:14.640Z,0.50
2023-05-01T04:03:42.956Z,0.50
2023-05-01T04:06:10.372Z,0.50
2023-05-01T04:08:37.107Z,0.50
2023-05-01T04:11:03.880Z,0.40
2023-05-01T04:13:31.245Z,0.50
2023-05-01T04:15:59.529Z,0.40
2023-05-01T04:18:26.892Z,0.50
2023-05-01T04:20:54.038Z,0.50
2023-05-01T04:23:22.086Z,0.40
2023-05-01T04:25:50.885Z,0.50
2023-05-01T04:28:18.054Z,0.40
2023-05-01T04:30:44.811Z,0.30
2023-05-01T04:33:11.832Z,0.40
2023-05-01T04:35:39.394Z,0.40
2023-05-01T04:38:06.845Z,0.30
2023-05-01T04:40:34.208Z,0.40
2023-05-01T04:43:00.891Z,0.40
2023-05-01T04:45:27.635Z,0.30
2023-05-01T04:47:54.706Z,0.30
2023-05-01T04:50:21.928Z,0.30
2023-05-01T04:52:48.686Z,0.30
2023-05-01T04:55:15.680Z,0.50
2023-05-01T04:57:59.714Z,0.30
2023-05-01T05:00:28.172Z,0.30
2023-05-01T05:02:56.101Z,0.30
2023-05-01T05:05:23.522Z,0.30
2023-05-01T05:07:51.100Z,0.20
2023-05-01T05:10:36.653Z,0.30
2023-05-01T05:13:25.922Z,0.30
2023-05-01T05:16:04.200Z,0.20
2023-05-01T05:18:31.689Z,0.40
2023-05-01T05:20:58.688Z,0.20
2023-05-01T05:23:25.819Z,0.30
2023-05-01T05:25:52.485Z,0.30
2023-05-01T05:28:19.535Z,0.30
2023-05-01T05:30:47.268Z,0.30
2023-05-01T05:33:15.948Z,0.20
2023-05-01T05:35:43.324Z,0.70
2023-05-01T05:38:10.446Z,0.30
2023-05-01T05:40:38.405Z,0.20
2023-05-01T05:43:05.381Z,0.20
2023-05-01T05:45:35.692Z,0.20
2023-05-01T05:48:03.235Z,0.20
2023-05-01T05:50:31.458Z,0.20
2023-05-01T05:52:58.505Z,0.20
2023-05-01T05:55:25.870Z,0.20
2023-05-01T05:58:01.658Z,0.30
2023-05-01T06:00:29.745Z,0.10
2023-05-01T06:02:57.475Z,0.20
2023-05-01T06:05:26.866Z,0.20
2023-05-01T06:07:54.853Z,0.10
2023-05-01T06:10:21.539Z,0.10
2023-05-01T06:12:48.641Z,0.10
2023-05-01T06:15:19.029Z,0.20
2023-05-01T06:17:51.736Z,0.20
2023-05-01T06:20:18.620Z,0.20
2023-05-01T06:22:46.813Z,0.20
2023-05-01T06:25:27.964Z,0.20
2023-05-01T06:27:54.610Z,0.10
2023-05-01T06:30:22.473Z,0.00
2023-05-01T06:32:50.048Z,0.10
2023-05-01T06:35:17.194Z,0.10
2023-05-01T06:37:43.907Z,0.10
2023-05-01T06:40:11.556Z,0.10
2023-05-01T06:42:39.098Z,0.10
2023-05-01T06:45:09.252Z,0.20
2023-05-01T06:47:36.183Z,0.20
2023-05-01T06:50:05.727Z,0.10
2023-05-01T06:52:33.504Z,0.20
2023-05-01T06:55:00.356Z,0.10
2023-05-01T06:57:27.124Z,0.10
2023-05-01T06:59:54.433Z,0.10
2023-05-01T07:02:21.642Z,0.20
2023-05-01T07:04:48.549Z,0.10
2023-05-01T07:07:15.192Z,0.20
2023-05-01T07:09:41.975Z,0.10
2023-05-01T07:12:08.784Z,0.10
2023-05-01T07:14:35.972Z,0.10
2023-05-01T07:17:03.450Z,0.10
2023-05-01T07:19:30.316Z,0.00
2023-05-01T07:21:57.207Z,0.10
2023-05-01T07:24:23.884Z,0.10
2023-05-01T07:26:51.759Z,0.10
2023-05-01T07:29:18.477Z,0.10
2023-05-01T07:31:46.318Z,0.10
2023-05-01T07:34:13.542Z,0.10
2023-05-01T07:36:40.274Z,0.10
2023-05-01T07:39:07.435Z,0.10
2023-05-01T07:41:34.172Z,0.10
2023-05-01T07:44:01.221Z,0.20
2023-05-01T07:46:27.997Z,0.10
2023-05-01T07:48:54.939Z,0.20
2023-05-01T07:51:21.737Z,0.10
2023-05-01T07:53:49.416Z,0.10
2023-05-01T07:56:16.489Z,0.10
2023-05-01T07:58:44.055Z,0.20
2023-05-01T08:01:10.902Z,0.20
2023-05-01T08:03:37.976Z,0.10
2023-05-01T08:06:05.848Z,0.10
2023-05-01T08:08:32.759Z,0.10
2023-05-01T08:10:59.740Z,0.10
2023-05-01T08:13:26.460Z,0.10
2023-05-01T08:15:53.284Z,0.10
2023-05-01T08:18:21.219Z,0.10
2023-05-01T08:20:48.449Z,0.10
2023-05-01T08:23:18.858Z,0.10
2023-05-01T08:25:51.186Z,0.10
2023-05-01T08:28:18.539Z,0.10
2023-05-01T08:30:45.991Z,0.10
2023-05-01T08:33:12.745Z,0.10
2023-05-01T08:35:39.680Z,0.10
2023-05-01T08:38:06.353Z,0.10
2023-05-01T08:40:34.616Z,0.20
2023-05-01T08:43:02.520Z,0.10
2023-05-01T08:45:31.191Z,0.10
2023-05-01T08:47:58.134Z,0.10
2023-05-01T08:50:24.864Z,0.10
2023-05-01T08:52:52.811Z,0.10
2023-05-01T08:55:19.686Z,0.10
2023-05-01T08:57:46.961Z,0.10
2023-05-01T09:00:20.856Z,0.10
2023-05-01T09:02:48.623Z,0.10
2023-05-01T09:05:16.158Z,0.20
2023-05-01T09:07:43.864Z,0.10
2023-05-01T09:10:11.958Z,0.10
2023-05-01T09:12:38.943Z,0.10
2023-05-01T09:15:07.417Z,0.10
2023-05-01T09:17:34.351Z,0.10
2023-05-01T09:20:06.376Z,0.10
2023-05-01T09:22:33.567Z,0.10
2023-05-01T09:25:00.777Z,0.10
2023-05-01T09:27:27.798Z,0.10
2023-05-01T09:29:54.856Z,0.10
2023-05-01T09:32:28.381Z,0.10
2023-05-01T09:34:56.458Z,0.10
2023-05-01T09:37:29.765Z,0.10
2023-05-01T09:40:13.283Z,0.10
2023-05-01T09:42:41.769Z,0.10
2023-05-01T09:45:15.002Z,0.10
2023-05-01T09:47:44.059Z,0.10
2023-05-01T09:50:13.780Z,0.10
2023-05-01T09:52:40.501Z,0.10
2023-05-01T09:55:17.334Z,0.10
2023-05-01T09:57:45.295Z,0.10
2023-05-01T10:00:14.605Z,0.10
2023-05-01T10:02:42.804Z,0.10
2023-05-01T10:05:10.236Z,0.10
2023-05-01T10:07:37.422Z,0.20
2023-05-01T10:10:18.056Z,0.10
2023-05-01T10:12:44.894Z,0.10
2023-05-01T10:15:24.095Z,0.10
2023-05-01T10:17:52.595Z,0.10
2023-05-01T10:20:19.985Z,0.10
2023-05-01T10:22:46.788Z,0.10
2023-05-01T10:25:13.689Z,0.00
2023-05-01T10:27:41.258Z,0.10
2023-05-01T10:30:08.831Z,0.00
2023-05-01T10:34:32.027Z,0.10
2023-05-01T10:37:04.713Z,0.10
2023-05-01T10:39:36.264Z,0.10
2023-05-01T10:42:04.769Z,0.10
2023-05-01T10:44:32.013Z,0.10
2023-05-01T10:46:58.781Z,0.10
2023-05-01T10:49:25.690Z,0.10
2023-05-01T10:51:58.660Z,0.10
2023-05-01T10:54:26.939Z,0.10
2023-05-01T10:56:58.740Z,0.10
2023-05-01T10:59:26.091Z,0.10
2023-05-01T11:01:53.221Z,0.00
2023-05-01T11:04:27.148Z,0.10
2023-05-01T11:07:07.522Z,0.10
2023-05-01T11:09:39.134Z,0.10
2023-05-01T11:12:06.645Z,0.10
2023-05-01T11:14:52.341Z,0.10
2023-05-01T11:17:49.885Z,0.10
2023-05-01T11:20:25.996Z,0.10
2023-05-01T11:22:53.676Z,0.10
2023-05-01T11:25:21.458Z,0.10
2023-05-01T11:27:53.011Z,0.10
2023-05-01T11:30:20.085Z,0.10
2023-05-01T11:32:47.933Z,0.10
2023-05-01T11:35:22.134Z,0.10
2023-05-01T11:37:49.089Z,0.10
2023-05-01T11:40:26.273Z,0.10
2023-05-01T11:43:07.107Z,0.10
2023-05-01T11:45:34.975Z,0.10
2023-05-01T11:48:04.376Z,0.10
2023-05-01T11:50:32.765Z,0.20
2023-05-01T11:52:59.527Z,0.10
2023-05-01T11:55:33.320Z,0.00
2023-05-01T11:58:00.048Z,0.10
2023-05-01T12:00:31.952Z,0.10
2023-05-01T12:03:03.076Z,0.10
2023-05-01T12:05:31.596Z,0.10
2023-05-01T12:08:21.870Z,0.10
2023-05-01T12:10:57.602Z,0.10
2023-05-01T12:13:24.658Z,0.10
2023-05-01T12:15:53.014Z,0.10
2023-05-01T12:18:21.404Z,0.10
2023-05-01T12:20:50.371Z,0.10
2023-05-01T12:23:19.600Z,0.10
2023-05-01T12:25:46.657Z,0.10
2023-05-01T12:28:14.275Z,0.10
2023-05-01T12:30:41.783Z,0.10
2023-05-01T12:33:12.849Z,0.20
2023-05-01T12:35:40.417Z,0.10
2023-05-01T12:38:20.736Z,0.40
2023-05-01T12:40:54.904Z,0.10
2023-05-01T12:43:22.696Z,0.10
2023-05-01T12:45:53.404Z,0.10
2023-05-01T12:48:20.196Z,0.10
2023-05-01T12:50:48.081Z,0.10
2023-05-01T12:53:15.559Z,0.20
2023-05-01T12:55:45.753Z,0.20
2023-05-01T12:58:12.869Z,0.10
2023-05-01T13:00:50.041Z,0.10
2023-05-01T13:03:21.910Z,0.10
2023-05-01T13:06:02.164Z,0.10
2023-05-01T13:08:30.075Z,0.10
2023-05-01T13:10:58.520Z,0.10
2023-05-01T13:13:26.888Z,0.10
2023-05-01T13:15:53.855Z,0.10
2023-05-01T13:18:20.688Z,0.10
2023-05-01T13:20:47.443Z,0.10
2023-05-01T13:23:14.188Z,0.10
2023-05-01T13:25:40.866Z,0.10
2023-05-01T13:28:07.905Z,0.10
2023-05-01T13:30:34.885Z,0.10
2023-05-01T13:33:02.010Z,0.20
2023-05-01T13:35:28.905Z,0.10
2023-05-01T13:37:55.644Z,0.10
2023-05-01T13:40:22.310Z,0.20
2023-05-01T13:42:53.795Z,0.10
2023-05-01T13:45:23.612Z,0.10
2023-05-01T13:47:51.891Z,0.10
2023-05-01T13:50:19.033Z,0.10
2023-05-01T13:52:45.980Z,0.10
2023-05-01T13:55:13.174Z,0.10
2023-05-01T13:57:41.610Z,0.10
2023-05-01T14:00:10.551Z,0.10
2023-05-01T14:02:44.729Z,0.10
2023-05-01T14:05:11.897Z,0.20
2023-05-01T14:07:55.207Z,0.10
2023-05-01T14:10:22.070Z,0.20
2023-05-01T14:12:48.813Z,0.10
2023-05-01T14:15:15.474Z,0.10
2023-05-01T14:17:42.311Z,0.30
2023-05-01T14:20:09.392Z,0.30
2023-05-01T14:22:43.348Z,0.10
2023-05-01T14:25:24.416Z,0.10
2023-05-01T14:27:52.006Z,0.20
2023-05-01T14:30:33.758Z,0.20
2023-05-01T14:33:11.808Z,0.10
2023-05-01T14:35:49.936Z,0.10
2023-05-01T14:38:17.877Z,0.10
2023-05-01T14:40:44.939Z,0.10
2023-05-01T14:43:18.738Z,0.20
2023-05-01T14:45:46.622Z,0.00
2023-05-01T14:48:26.635Z,0.10
2023-05-01T14:50:55.132Z,0.10
2023-05-01T14:53:23.260Z,0.20
2023-05-01T14:55:54.217Z,0.10
2023-05-01T14:58:21.126Z,0.00
2023-05-01T15:00:47.817Z,0.10
2023-05-01T15:03:14.643Z,0.10
2023-05-01T15:05:41.909Z,0.10
2023-05-01T15:08:09.183Z,0.10
2023-05-01T15:10:36.084Z,0.10
2023-05-01T15:13:02.819Z,0.30
2023-05-01T15:15:29.886Z,0.10
2023-05-01T15:17:56.776Z,0.10
2023-05-01T15:20:23.692Z,0.10
2023-05-01T15:22:50.395Z,0.10
2023-05-01T15:25:17.168Z,0.20
2023-05-01T15:27:45.781Z,0.20
2023-05-01T15:30:12.891Z,0.10
2023-05-01T15:32:39.742Z,0.10
2023-05-01T15:35:07.138Z,0.10
2023-05-01T15:37:33.909Z,0.10
2023-05-01T15:40:00.716Z,0.20
2023-05-01T15:42:27.450Z,0.20
2023-05-01T15:44:54.077Z,0.10
2023-05-01T15:47:20.734Z,0.20
2023-05-01T15:49:47.580Z,0.20
2023-05-01T15:52:14.359Z,0.30
2023-05-01T15:54:41.298Z,0.20
2023-05-01T15:57:09.386Z,0.30
2023-05-01T15:59:36.239Z,0.30
2023-05-01T16:02:02.875Z,0.30
2023-05-01T16:04:29.618Z,0.30
2023-05-01T16:06:56.309Z,0.30
2023-05-01T16:09:25.004Z,0.20
2023-05-01T16:11:51.697Z,0.20
2023-05-01T16:14:18.444Z,0.20
2023-05-01T16:16:45.223Z,0.10
2023-05-01T16:19:14.912Z,0.20
2023-05-01T16:21:41.589Z,0.20
2023-05-01T16:24:08.392Z,0.20
2023-05-01T16:26:35.257Z,0.10
2023-05-01T16:29:05.386Z,0.20
2023-05-01T16:31:38.855Z,0.30
2023-05-01T16:34:13.097Z,0.30
2023-05-01T16:36:43.064Z,0.30
2023-05-01T16:39:14.718Z,0.20
2023-05-01T16:41:46.231Z,0.30
2023-05-01T16:44:13.508Z,0.30
2023-05-01T16:46:41.992Z,0.40
2023-05-01T16:49:13.676Z,0.50
2023-05-01T16:51:41.790Z,0.50
2023-05-01T16:54:08.575Z,0.80
2023-05-01T16:56:35.382Z,1.10
2023-05-01T16:59:02.057Z,1.10
2023-05-01T17:01:28.763Z,0.90
2023-05-01T17:03:55.633Z,1.30
2023-05-01T17:06:22.609Z,1.80
2023-05-01T17:08:49.593Z,1.70
2023-05-01T17:11:16.510Z,0.80
2023-05-01T17:13:43.267Z,0.90
2023-05-01T17:16:10.606Z,0.70
2023-05-01T17:18:37.375Z,0.50
2023-05-01T17:21:04.054Z,0.60
2023-05-01T17:23:30.918Z,0.60
2023-05-01T17:25:57.665Z,0.60
2023-05-01T17:28:24.634Z,0.50
2023-05-01T17:30:51.800Z,0.40
2023-05-01T17:33:18.520Z,0.60
2023-05-01T17:35:45.662Z,0.50
2023-05-01T17:38:12.982Z,0.50
2023-05-01T17:40:39.786Z,0.50
2023-05-01T17:43:06.543Z,0.50
2023-05-01T17:45:33.276Z,0.30
2023-05-01T17:48:00.929Z,0.50
2023-05-01T17:50:27.847Z,0.30
2023-05-01T17:52:54.516Z,0.40
2023-05-01T17:55:21.237Z,0.70
2023-05-01T17:57:48.037Z,0.30
2023-05-01T18:00:16.556Z,0.40
2023-05-01T18:02:45.084Z,0.40
2023-05-01T18:05:12.760Z,0.30
2023-05-01T18:07:39.520Z,0.30
2023-05-01T18:10:07.188Z,0.60
2023-05-01T18:12:33.906Z,0.40
2023-05-01T18:15:00.657Z,0.50
2023-05-01T18:17:27.684Z,0.40
2023-05-01T18:19:54.967Z,0.50
2023-05-01T18:22:21.770Z,0.40
2023-05-01T18:24:48.675Z,0.50
2023-05-01T18:27:15.446Z,0.40
2023-05-01T18:29:42.089Z,0.40
2023-05-01T18:32:10.672Z,0.40
2023-05-01T18:34:39.686Z,0.30
2023-05-01T18:37:06.632Z,0.40
2023-05-01T18:39:33.289Z,0.50
2023-05-01T18:42:00.117Z,0.40
2023-05-01T18:44:26.956Z,0.40
2023-05-01T18:46:53.654Z,0.50
2023-05-01T18:49:23.722Z,0.40
2023-05-01T18:51:51.286Z,0.40
2023-05-01T18:54:18.037Z,0.50
2023-05-01T18:56:44.782Z,0.40
2023-05-01T18:59:11.472Z,0.40
2023-05-01T19:01:38.304Z,0.40
2023-05-01T19:04:06.641Z,0.40
2023-05-01T19:06:33.739Z,0.40
2023-05-01T19:09:00.604Z,0.40
2023-05-01T19:11:31.577Z,0.80
2023-05-01T19:13:58.537Z,0.40
2023-05-01T19:16:26.360Z,0.50
2023-05-01T19:18:53.116Z,0.60
2023-05-01T19:21:19.856Z,0.70
2023-05-01T19:23:47.364Z,0.50
2023-05-01T19:26:14.027Z,0.70
2023-05-01T19:28:41.546Z,0.80
2023-05-01T19:31:09.292Z,0.90
2023-05-01T19:33:36.138Z,1.20
2023-05-01T19:36:02.939Z,1.00
2023-05-01T19:38:29.704Z,1.30
2023-05-01T19:40:56.754Z,1.10
2023-05-01T19:43:23.418Z,1.50
2023-05-01T19:45:50.127Z,0.80
2023-05-01T19:48:16.867Z,0.70
2023-05-01T19:50:50.687Z,1.00
2023-05-01T19:53:17.979Z,0.90
2023-05-01T19:55:46.360Z,1.00
2023-05-01T19:58:15.125Z,0.60
2023-05-01T20:00:42.028Z,0.80
2023-05-01T20:03:10.910Z,0.80
2023-05-01T20:05:38.029Z,0.70
2023-05-01T20:08:05.184Z,0.80
2023-05-01T20:10:32.836Z,0.90
2023-05-01T20:13:00.127Z,0.80
2023-05-01T20:15:26.948Z,1.10
2023-05-01T20:17:53.774Z,1.40
2023-05-01T20:20:20.597Z,1.30
2023-05-01T20:22:47.315Z,2.30
2023-05-01T20:25:14.199Z,1.60
2023-05-01T20:27:41.440Z,1.80
2023-05-01T20:30:10.928Z,1.80
2023-05-01T20:32:42.445Z,1.90
2023-05-01T20:35:10.950Z,1.50
2023-05-01T20:37:37.699Z,1.30
2023-05-01T20:40:05.639Z,1.20
2023-05-01T20:42:32.414Z,1.00
2023-05-01T20:44:59.147Z,0.90
2023-05-01T20:47:26.011Z,0.80
2023-05-01T20:49:52.737Z,0.80
2023-05-01T20:52:20.205Z,1.00
2023-05-01T20:54:46.887Z,0.90
2023-05-01T20:57:16.711Z,0.80
2023-05-01T20:59:48.018Z,1.10
2023-05-01T21:02:18.016Z,0.80
2023-05-01T21:04:46.318Z,0.90
2023-05-01T21:07:12.981Z,0.90
2023-05-01T21:09:46.007Z,1.00
2023-05-01T21:12:13.238Z,0.90
2023-05-01T21:14:40.664Z,0.80
2023-05-01T21:17:10.868Z,0.80
2023-05-01T21:19:45.029Z,0.80
2023-05-01T21:22:20.568Z,0.80
2023-05-01T21:24:52.019Z,0.80
2023-05-01T21:27:18.701Z,0.70
2023-05-01T21:29:57.050Z,0.80
2023-05-01T21:32:32.400Z,0.70
2023-05-01T21:35:02.656Z,0.90
2023-05-01T21:37:29.668Z,1.40
2023-05-01T21:40:03.615Z,0.90
2023-05-01T21:42:37.934Z,1.00
2023-05-01T21:45:11.023Z,1.00
2023-05-01T21:47:39.371Z,0.80
2023-05-01T21:50:07.253Z,1.10
2023-05-01T21:52:34.906Z,1.10
2023-05-01T21:55:03.675Z,0.90
2023-05-01T21:57:31.685Z,0.90
2023-05-01T22:00:01.209Z,1.00
2023-05-01T22:02:38.517Z,1.10
2023-05-01T22:05:06.277Z,0.80
2023-05-01T22:07:33.418Z,0.90
2023-05-01T22:10:01.384Z,0.80
2023-05-01T22:12:28.464Z,0.70
2023-05-01T22:14:55.403Z,0.70
2023-05-01T22:17:25.132Z,0.70
2023-05-01T22:19:52.076Z,0.70
2023-05-01T22:22:19.420Z,0.90
2023-05-01T22:24:46.072Z,0.80
2023-05-01T22:27:12.705Z,0.90
2023-05-01T22:29:39.448Z,0.70
2023-05-01T22:32:06.235Z,0.70
2023-05-01T22:34:33.050Z,0.70
2023-05-01T22:36:59.735Z,0.60
2023-05-01T22:39:26.571Z,0.90
2023-05-01T22:41:53.290Z,0.70
2023-05-01T22:44:22.267Z,0.60
2023-05-01T22:46:49.142Z,0.60
2023-05-01T22:51:23.936Z,0.60
2023-05-01T22:53:50.854Z,0.60
2023-05-01T22:56:17.485Z,0.60
2023-05-01T22:58:44.157Z,0.60
2023-05-01T23:01:11.095Z,0.70
2023-05-01T23:03:39.010Z,0.70
2023-05-01T23:06:09.205Z,0.70
2023-05-01T23:08:36.043Z,0.70
2023-05-01T23:11:03.063Z,0.60
2023-05-01T23:13:32.236Z,0.70
2023-05-01T23:15:59.758Z,0.60
2023-05-01T23:18:36.505Z,0.70
2023-05-01T23:21:03.470Z,0.60
2023-05-01T23:23:30.760Z,0.60
2023-05-01T23:25:57.794Z,0.50
2023-05-01T23:28:26.002Z,0.50
2023-05-01T23:31:00.716Z,0.60
2023-05-01T23:35:54.717Z,0.60
2023-05-01T23:38:21.449Z,0.70
2023-05-01T23:40:49.757Z,0.50
2023-05-01T23:43:16.980Z,0.50
2023-05-01T23:45:43.920Z,0.50
2023-05-01T23:48:10.810Z,0.50
2023-05-01T23:50:37.577Z,0.60
2023-05-01T23:53:06.405Z,0.60
2023-05-01T23:55:37.070Z,0.50
2023-05-01T23:58:04.739Z,0.50
